createdAt,value
2018-01-16T00:01:03.220Z,6.30
2018-01-16T00:03:33.068Z,6.30
2018-01-16T00:06:02.495Z,5.22
2018-01-16T00:08:31.266Z,5.30
2018-01-16T00:11:02.283Z,5.50
2018-01-16T00:13:31.039Z,6.57
2018-01-16T00:15:59.513Z,6.70
2018-01-16T00:18:28.457Z,6.20
2018-01-16T00:20:57.490Z,5.97
2018-01-16T00:23:26.362Z,6.47
2018-01-16T00:25:54.582Z,6.47
2018-01-16T00:28:23.329Z,6.28
2018-01-16T00:30:52.639Z,7.07
2018-01-16T00:33:21.210Z,6.43
2018-01-16T00:35:49.929Z,6.10
2018-01-16T00:38:18.741Z,7.47
2018-01-16T00:40:48.411Z,6.97
2018-01-16T00:43:18.190Z,6.87
2018-01-16T00:45:47.171Z,6.40
2018-01-16T00:48:16.678Z,6.95
2018-01-16T00:50:46.311Z,7.18
2018-01-16T00:53:15.069Z,6.82
2018-01-16T00:55:44.681Z,6.78
2018-01-16T00:58:14.290Z,5.22
2018-01-16T01:00:42.820Z,5.70
2018-01-16T01:03:11.936Z,6.10
2018-01-16T01:05:41.571Z,5.20
2018-01-16T01:08:10.142Z,5.47
2018-01-16T01:10:39.248Z,4.95
2018-01-16T01:13:08.699Z,4.90
2018-01-16T01:15:37.505Z,5.50
2018-01-16T01:18:07.822Z,4.00
2018-01-16T01:20:36.411Z,4.47
2018-01-16T01:23:05.710Z,4.00
2018-01-16T01:25:34.467Z,4.30
2018-01-16T01:28:03.278Z,3.67
2018-01-16T01:30:32.452Z,3.77
2018-01-16T01:33:00.880Z,3.85
2018-01-16T01:35:29.174Z,3.93
2018-01-16T01:37:57.728Z,3.78
2018-01-16T01:40:26.775Z,3.30
2018-01-16T01:42:56.321Z,3.63
2018-01-16T01:45:26.961Z,4.20
2018-01-16T01:47:56.034Z,4.25
2018-01-16T01:50:24.686Z,3.23
2018-01-16T01:52:53.340Z,3.87
2018-01-16T01:55:22.017Z,4.03
2018-01-16T01:57:50.612Z,4.33
2018-01-16T02:00:19.566Z,3.00
2018-01-16T02:02:49.188Z,3.30
2018-01-16T02:05:17.841Z,3.50
2018-01-16T02:07:47.258Z,3.60
2018-01-16T02:10:15.898Z,3.00
2018-01-16T02:12:45.522Z,3.40
2018-01-16T02:15:14.748Z,3.57
2018-01-16T02:17:44.946Z,2.97
2018-01-16T02:20:13.538Z,3.20
2018-01-16T02:22:42.435Z,3.23
2018-01-16T02:25:11.015Z,2.63
2018-01-16T02:27:40.007Z,3.20
2018-01-16T02:30:09.056Z,2.70
2018-01-16T02:32:38.310Z,3.17
2018-01-16T02:35:07.725Z,3.27
2018-01-16T02:37:36.387Z,3.70
2018-01-16T02:40:05.051Z,2.70
2018-01-16T02:42:34.051Z,2.70
2018-01-16T02:45:02.970Z,3.10
2018-01-16T02:47:31.803Z,3.20
2018-01-16T02:50:01.601Z,2.40
2018-01-16T02:52:31.503Z,3.03
2018-01-16T02:55:00.085Z,3.10
2018-01-16T02:57:28.322Z,3.13
2018-01-16T02:59:56.944Z,2.97
2018-01-16T03:02:25.061Z,2.80
2018-01-16T03:04:54.181Z,2.90
2018-01-16T03:07:22.443Z,3.43
2018-01-16T03:09:50.819Z,2.23
2018-01-16T03:12:19.991Z,3.43
2018-01-16T03:14:49.869Z,3.10
2018-01-16T03:17:18.925Z,3.13
2018-01-16T03:19:47.730Z,2.93
2018-01-16T03:22:16.592Z,3.10
2018-01-16T03:24:45.075Z,3.80
2018-01-16T03:27:13.449Z,3.10
2018-01-16T03:29:42.049Z,3.40
2018-01-16T03:32:11.405Z,2.87
2018-01-16T03:34:40.452Z,3.27
2018-01-16T03:37:09.408Z,2.80
2018-01-16T03:39:38.674Z,2.93
2018-01-16T03:42:08.096Z,2.80
2018-01-16T03:44:36.294Z,2.40
2018-01-16T03:47:05.660Z,2.60
2018-01-16T03:49:34.677Z,2.57
2018-01-16T03:52:04.498Z,2.80
2018-01-16T03:54:33.402Z,2.30
2018-01-16T03:57:02.123Z,2.27
2018-01-16T03:59:30.858Z,2.07
2018-01-16T04:01:59.959Z,2.17
2018-01-16T04:04:29.435Z,2.37
2018-01-16T04:06:58.525Z,2.40
2018-01-16T04:09:26.796Z,2.73
2018-01-16T04:11:55.426Z,2.10
2018-01-16T04:14:23.736Z,2.13
2018-01-16T04:16:51.823Z,2.50
2018-01-16T04:19:20.981Z,2.63
2018-01-16T04:21:49.642Z,2.60
2018-01-16T04:24:19.287Z,3.17
2018-01-16T04:26:47.932Z,3.20
2018-01-16T04:29:16.700Z,3.67
2018-01-16T04:31:45.414Z,4.00
2018-01-16T04:34:14.291Z,3.23
2018-01-16T04:36:43.013Z,2.83
2018-01-16T04:39:11.758Z,2.97
2018-01-16T04:41:40.234Z,2.67
2018-01-16T04:44:08.960Z,3.17
2018-01-16T04:46:37.975Z,2.40
2018-01-16T04:49:07.102Z,3.20
2018-01-16T04:51:35.324Z,2.37
2018-01-16T04:54:04.241Z,2.00
2018-01-16T04:56:33.345Z,2.40
2018-01-16T04:59:02.472Z,1.80
2018-01-16T05:01:30.780Z,2.00
2018-01-16T05:03:59.624Z,2.00
2018-01-16T05:06:28.177Z,2.77
2018-01-16T05:08:56.827Z,1.70
2018-01-16T05:11:26.159Z,1.93
2018-01-16T05:13:55.756Z,1.20
2018-01-16T05:16:24.954Z,2.17
2018-01-16T05:18:54.948Z,1.80
2018-01-16T05:21:23.540Z,1.97
2018-01-16T05:23:52.217Z,2.07
2018-01-16T05:26:20.857Z,2.13
2018-01-16T05:28:49.924Z,2.77
2018-01-16T05:31:18.956Z,2.67
2018-01-16T05:33:47.382Z,1.90
2018-01-16T05:36:16.210Z,2.10
2018-01-16T05:38:44.751Z,3.20
2018-01-16T05:41:13.161Z,2.13
2018-01-16T05:43:42.746Z,1.80
2018-01-16T05:46:11.702Z,1.90
2018-01-16T05:48:40.634Z,1.90
2018-01-16T05:51:09.196Z,2.40
2018-01-16T05:53:38.383Z,1.67
2018-01-16T05:56:07.248Z,1.97
2018-01-16T05:58:35.764Z,2.40
2018-01-16T06:01:04.591Z,2.07
2018-01-16T06:03:33.017Z,2.87
2018-01-16T06:06:02.988Z,2.50
2018-01-16T06:08:32.028Z,2.50
2018-01-16T06:11:00.816Z,1.87
2018-01-16T06:13:29.281Z,2.23
2018-01-16T06:15:58.846Z,1.97
2018-01-16T06:18:27.100Z,2.17
2018-01-16T06:20:55.564Z,1.60
2018-01-16T06:23:24.405Z,2.20
2018-01-16T06:25:53.121Z,1.80
2018-01-16T06:28:22.955Z,1.80
2018-01-16T06:30:52.751Z,1.93
2018-01-16T06:33:21.574Z,1.90
2018-01-16T06:35:51.256Z,1.90
2018-01-16T06:38:19.976Z,1.53
2018-01-16T06:40:48.855Z,1.70
2018-01-16T06:43:18.295Z,1.37
2018-01-16T06:45:48.158Z,1.03
2018-01-16T06:48:17.141Z,1.03
2018-01-16T06:50:46.633Z,1.30
2018-01-16T06:53:15.094Z,0.93
2018-01-16T06:55:44.853Z,1.10
2018-01-16T06:58:13.397Z,0.93
2018-01-16T07:00:43.050Z,0.80
2018-01-16T07:03:12.585Z,1.20
2018-01-16T07:05:41.406Z,1.00
2018-01-16T07:08:09.693Z,1.27
2018-01-16T07:10:38.086Z,1.30
2018-01-16T07:13:06.460Z,0.90
2018-01-16T07:15:35.167Z,0.90
2018-01-16T07:18:04.006Z,1.30
2018-01-16T07:20:33.184Z,1.10
2018-01-16T07:23:01.710Z,0.87
2018-01-16T07:25:30.545Z,0.80
2018-01-16T07:27:58.708Z,0.93
2018-01-16T07:30:26.838Z,1.13
2018-01-16T07:32:56.258Z,0.60
2018-01-16T07:35:25.377Z,0.50
2018-01-16T07:37:54.462Z,0.70
2018-01-16T07:40:24.816Z,0.60
2018-01-16T07:42:53.658Z,1.00
2018-01-16T07:45:23.432Z,1.13
2018-01-16T07:47:52.269Z,0.70
2018-01-16T07:50:20.869Z,0.80
2018-01-16T07:52:51.096Z,0.70
2018-01-16T07:55:20.337Z,0.90
2018-01-16T07:57:49.785Z,0.90
2018-01-16T08:00:19.077Z,0.70
2018-01-16T08:02:47.586Z,0.60
2018-01-16T08:05:16.092Z,0.43
2018-01-16T08:07:45.531Z,0.83
2018-01-16T08:10:14.682Z,0.80
2018-01-16T08:12:43.785Z,0.50
2018-01-16T08:15:13.276Z,0.93
2018-01-16T08:17:42.017Z,0.50
2018-01-16T08:20:10.500Z,1.03
2018-01-16T08:22:39.022Z,0.50
2018-01-16T08:25:07.876Z,0.53
2018-01-16T08:27:37.003Z,0.47
2018-01-16T08:30:05.685Z,0.50
2018-01-16T08:32:34.707Z,0.50
2018-01-16T08:35:03.259Z,0.50
2018-01-16T08:37:32.197Z,0.50
2018-01-16T08:40:01.299Z,0.50
2018-01-16T08:42:30.008Z,0.53
2018-01-16T08:44:59.138Z,0.40
2018-01-16T08:47:27.667Z,0.70
2018-01-16T08:49:57.291Z,0.40
2018-01-16T08:52:26.148Z,0.50
2018-01-16T08:54:54.573Z,0.70
2018-01-16T08:57:24.603Z,0.70
2018-01-16T08:59:53.814Z,0.63
2018-01-16T09:02:23.540Z,0.70
2018-01-16T09:04:52.655Z,0.80
2018-01-16T09:07:22.774Z,0.83
2018-01-16T09:09:51.446Z,1.00
2018-01-16T09:12:19.983Z,0.83
2018-01-16T09:14:48.672Z,0.73
2018-01-16T09:17:17.802Z,0.80
2018-01-16T09:19:47.654Z,0.70
2018-01-16T09:22:16.188Z,0.73
2018-01-16T09:24:46.294Z,0.50
2018-01-16T09:27:15.653Z,0.70
2018-01-16T09:29:44.410Z,0.73
2018-01-16T09:32:13.532Z,0.50
2018-01-16T09:34:42.818Z,0.63
2018-01-16T09:37:12.018Z,0.60
2018-01-16T09:39:40.500Z,0.50
2018-01-16T09:42:08.943Z,0.70
2018-01-16T09:44:37.692Z,0.80
2018-01-16T09:47:06.534Z,0.90
2018-01-16T09:49:35.177Z,0.90
2018-01-16T09:52:03.885Z,0.50
2018-01-16T09:54:33.285Z,0.53
2018-01-16T09:57:02.246Z,0.50
2018-01-16T09:59:31.525Z,0.50
2018-01-16T10:02:00.664Z,0.93
2018-01-16T10:04:28.940Z,0.70
2018-01-16T10:06:57.820Z,0.57
2018-01-16T10:09:26.041Z,0.67
2018-01-16T10:11:55.235Z,0.60
2018-01-16T10:14:24.348Z,1.10
2018-01-16T10:16:54.735Z,0.70
2018-01-16T10:19:23.414Z,0.73
2018-01-16T10:21:54.071Z,0.50
2018-01-16T10:24:23.290Z,0.50
2018-01-16T10:26:52.871Z,0.50
2018-01-16T10:29:21.822Z,0.43
2018-01-16T10:31:50.947Z,0.57
2018-01-16T10:34:19.758Z,0.57
2018-01-16T10:36:48.461Z,0.40
2018-01-16T10:39:16.744Z,0.70
2018-01-16T10:41:46.253Z,0.67
2018-01-16T10:44:15.896Z,0.77
2018-01-16T10:46:45.118Z,0.50
2018-01-16T10:49:13.832Z,0.40
2018-01-16T10:51:44.384Z,0.40
2018-01-16T10:54:14.002Z,0.40
2018-01-16T10:56:42.984Z,0.60
2018-01-16T10:59:12.330Z,0.80
2018-01-16T11:01:41.122Z,0.90
2018-01-16T11:04:09.459Z,0.40
2018-01-16T11:06:38.353Z,0.67
2018-01-16T11:09:07.162Z,0.40
2018-01-16T11:11:35.284Z,0.60
2018-01-16T11:14:05.052Z,0.80
2018-01-16T11:16:33.633Z,0.60
2018-01-16T11:19:02.952Z,1.67
2018-01-16T11:21:32.281Z,0.60
2018-01-16T11:24:01.627Z,0.70
2018-01-16T11:26:29.876Z,1.00
2018-01-16T11:28:59.051Z,0.90
2018-01-16T11:31:27.619Z,0.60
2018-01-16T11:33:56.426Z,1.00
2018-01-16T11:36:25.269Z,0.80
2018-01-16T11:38:54.646Z,0.50
2018-01-16T11:41:23.670Z,1.30
2018-01-16T11:43:52.318Z,0.80
2018-01-16T11:46:21.605Z,0.90
2018-01-16T11:48:50.533Z,0.70
2018-01-16T11:51:20.140Z,0.60
2018-01-16T11:53:49.487Z,0.73
2018-01-16T11:56:18.114Z,1.20
2018-01-16T11:58:48.930Z,0.93
2018-01-16T12:01:18.270Z,0.50
2018-01-16T12:03:47.815Z,0.60
2018-01-16T12:06:17.822Z,0.90
2018-01-16T12:08:47.048Z,0.50
2018-01-16T12:11:15.705Z,0.40
2018-01-16T12:13:44.599Z,0.47
2018-01-16T12:16:13.875Z,0.70
2018-01-16T12:18:42.273Z,0.60
2018-01-16T12:21:11.098Z,0.80
2018-01-16T12:23:39.721Z,0.40
2018-01-16T12:26:09.448Z,0.80
2018-01-16T12:28:38.357Z,0.60
2018-01-16T12:31:07.115Z,0.60
2018-01-16T12:33:36.391Z,0.70
2018-01-16T12:36:05.387Z,0.97
2018-01-16T12:38:35.646Z,1.40
2018-01-16T12:41:04.813Z,0.97
2018-01-16T12:43:35.661Z,1.13
2018-01-16T12:46:04.723Z,1.20
2018-01-16T12:48:33.822Z,1.23
2018-01-16T12:51:02.302Z,1.27
2018-01-16T12:53:31.346Z,1.33
2018-01-16T12:56:00.219Z,0.97
2018-01-16T12:58:29.147Z,1.40
2018-01-16T13:00:57.447Z,0.80
2018-01-16T13:03:26.024Z,1.17
2018-01-16T13:05:54.455Z,0.80
2018-01-16T13:08:23.530Z,0.83
2018-01-16T13:10:52.792Z,0.90
2018-01-16T13:13:22.721Z,0.80
2018-01-16T13:15:51.653Z,0.60
2018-01-16T13:18:21.361Z,0.50
2018-01-16T13:20:50.235Z,0.93
2018-01-16T13:23:19.562Z,0.50
2018-01-16T13:25:48.594Z,0.60
2018-01-16T13:28:18.594Z,1.30
2018-01-16T13:30:47.546Z,0.70
2018-01-16T13:33:15.778Z,0.77
2018-01-16T13:35:45.772Z,0.80
2018-01-16T13:38:14.975Z,0.87
2018-01-16T13:40:45.038Z,0.70
2018-01-16T13:43:14.609Z,0.70
2018-01-16T13:45:43.911Z,0.67
2018-01-16T13:48:12.823Z,0.70
2018-01-16T13:50:41.472Z,0.60
2018-01-16T13:53:10.961Z,0.80
2018-01-16T13:55:40.472Z,1.07
2018-01-16T13:58:09.544Z,3.93
2018-01-16T14:00:39.623Z,0.90
2018-01-16T14:03:08.708Z,1.10
2018-01-16T14:05:38.806Z,0.77
2018-01-16T14:08:08.086Z,0.60
2018-01-16T14:10:38.639Z,2.77
2018-01-16T14:13:07.467Z,2.60
2018-01-16T14:15:37.187Z,0.60
2018-01-16T14:18:05.462Z,0.60
2018-01-16T14:20:35.492Z,1.10
2018-01-16T14:23:04.107Z,0.70
2018-01-16T14:25:33.696Z,0.40
2018-01-16T14:28:02.822Z,0.83
2018-01-16T14:30:32.169Z,0.30
2018-01-16T14:33:01.428Z,0.33
2018-01-16T14:35:30.209Z,0.40
2018-01-16T14:37:58.727Z,1.17
2018-01-16T14:40:27.380Z,0.40
2018-01-16T14:42:55.590Z,0.80
2018-01-16T14:45:24.690Z,0.50
2018-01-16T14:47:53.483Z,1.00
2018-01-16T14:50:22.973Z,0.77
2018-01-16T14:52:51.525Z,0.80
2018-01-16T14:55:21.736Z,0.63
2018-01-16T14:57:50.143Z,0.63
2018-01-16T15:00:19.218Z,0.40
2018-01-16T15:02:47.971Z,0.50
2018-01-16T15:05:17.046Z,0.50
2018-01-16T15:07:45.509Z,0.57
2018-01-16T15:10:16.338Z,0.70
2018-01-16T15:12:45.348Z,0.70
2018-01-16T15:15:13.769Z,0.60
2018-01-16T15:17:43.187Z,0.93
2018-01-16T15:20:12.836Z,0.70
2018-01-16T15:22:41.575Z,0.70
2018-01-16T15:25:11.516Z,1.00
2018-01-16T15:27:40.088Z,0.57
2018-01-16T15:30:08.693Z,0.57
2018-01-16T15:32:38.552Z,1.33
2018-01-16T15:35:07.928Z,1.93
2018-01-16T15:37:39.099Z,1.10
2018-01-16T15:40:07.535Z,0.60
2018-01-16T15:42:36.781Z,0.50
2018-01-16T15:45:05.515Z,0.73
2018-01-16T15:47:36.146Z,0.70
2018-01-16T15:50:05.411Z,0.73
2018-01-16T15:52:35.543Z,1.80
2018-01-16T15:55:05.526Z,0.77
2018-01-16T15:57:34.525Z,1.13
2018-01-16T16:00:03.990Z,0.90
2018-01-16T16:02:33.702Z,1.00
2018-01-16T16:05:02.702Z,1.17
2018-01-16T16:07:34.112Z,0.77
2018-01-16T16:10:04.076Z,0.87
2018-01-16T16:12:32.231Z,1.20
2018-01-16T16:15:01.654Z,0.73
2018-01-16T16:17:30.991Z,1.07
2018-01-16T16:20:00.782Z,0.83
2018-01-16T16:22:29.048Z,0.87
2018-01-16T16:24:58.459Z,0.80
2018-01-16T16:27:27.681Z,0.90
2018-01-16T16:29:56.054Z,0.77
2018-01-16T16:32:24.617Z,0.90
2018-01-16T16:34:55.697Z,0.80
2018-01-16T16:37:24.489Z,1.33
2018-01-16T16:39:52.809Z,1.47
2018-01-16T16:42:21.825Z,0.80
2018-01-16T16:44:51.095Z,0.90
2018-01-16T16:47:20.103Z,1.30
2018-01-16T16:49:50.127Z,1.20
2018-01-16T16:52:19.213Z,1.00
2018-01-16T16:54:47.877Z,1.27
2018-01-16T16:57:17.391Z,1.10
2018-01-16T16:59:46.794Z,2.10
2018-01-16T17:02:15.068Z,1.20
2018-01-16T17:04:44.988Z,2.00
2018-01-16T17:07:13.758Z,1.30
2018-01-16T17:09:42.629Z,1.43
2018-01-16T17:12:11.963Z,2.43
2018-01-16T17:14:41.324Z,1.90
2018-01-16T17:17:10.585Z,1.73
2018-01-16T17:19:39.409Z,1.90
2018-01-16T17:22:07.925Z,1.50
2018-01-16T17:24:37.206Z,1.00
2018-01-16T17:27:05.791Z,1.07
2018-01-16T17:29:34.832Z,1.10
2018-01-16T17:32:03.830Z,1.00
2018-01-16T17:34:32.880Z,1.37
2018-01-16T17:37:02.351Z,1.10
2018-01-16T17:39:31.062Z,0.87
2018-01-16T17:42:00.543Z,1.23
2018-01-16T17:44:28.996Z,1.73
2018-01-16T17:46:57.831Z,1.60
2018-01-16T17:49:27.916Z,1.63
2018-01-16T17:51:56.487Z,1.50
2018-01-16T17:54:25.016Z,1.67
2018-01-16T17:56:55.318Z,1.93
2018-01-16T17:59:23.873Z,1.67
2018-01-16T18:01:52.206Z,1.80
2018-01-16T18:04:20.724Z,2.00
2018-01-16T18:06:50.151Z,2.00
2018-01-16T18:09:18.987Z,1.40
2018-01-16T18:11:47.416Z,1.93
2018-01-16T18:14:16.858Z,1.60
2018-01-16T18:16:45.380Z,1.07
2018-01-16T18:19:14.653Z,1.30
2018-01-16T18:21:44.262Z,2.30
2018-01-16T18:24:14.496Z,1.57
2018-01-16T18:26:43.432Z,1.87
2018-01-16T18:29:12.496Z,1.87
2018-01-16T18:31:41.932Z,2.90
2018-01-16T18:34:10.803Z,3.20
2018-01-16T18:36:40.780Z,2.50
2018-01-16T18:39:09.976Z,2.63
2018-01-16T18:41:39.603Z,2.60
2018-01-16T18:44:08.613Z,2.47
2018-01-16T18:46:37.089Z,1.93
2018-01-16T18:49:05.932Z,1.30
2018-01-16T18:51:34.978Z,1.50
2018-01-16T18:54:04.287Z,1.57
2018-01-16T18:56:33.591Z,1.17
2018-01-16T18:59:02.988Z,1.13
2018-01-16T19:01:32.341Z,1.27
2018-01-16T19:04:01.496Z,1.30
2018-01-16T19:06:30.096Z,1.07
2018-01-16T19:08:59.423Z,1.40
2018-01-16T19:11:27.644Z,1.17
2018-01-16T19:13:56.135Z,1.60
2018-01-16T19:16:24.810Z,1.30
2018-01-16T19:18:53.642Z,1.20
2018-01-16T19:21:22.096Z,1.87
2018-01-16T19:23:50.401Z,1.50
2018-01-16T19:26:19.089Z,1.70
2018-01-16T19:28:48.639Z,1.53
2018-01-16T19:31:17.340Z,2.17
2018-01-16T19:33:46.489Z,2.00
2018-01-16T19:36:15.643Z,2.30
2018-01-16T19:38:44.855Z,2.60
2018-01-16T19:41:14.063Z,2.20
2018-01-16T19:43:45.324Z,1.80
2018-01-16T19:46:14.344Z,1.60
2018-01-16T19:48:43.512Z,2.30
2018-01-16T19:51:12.848Z,2.10
2018-01-16T19:53:43.018Z,2.10
2018-01-16T19:56:12.084Z,2.57
2018-01-16T19:58:41.659Z,2.23
2018-01-16T20:01:10.934Z,2.40
2018-01-16T20:03:40.389Z,2.43
2018-01-16T20:06:08.695Z,2.60
2018-01-16T20:08:37.289Z,3.63
2018-01-16T20:11:07.076Z,2.90
2018-01-16T20:13:36.160Z,3.07
2018-01-16T20:16:04.910Z,3.10
2018-01-16T20:18:33.894Z,2.70
2018-01-16T20:21:03.902Z,2.77
2018-01-16T20:23:32.670Z,1.93
2018-01-16T20:26:02.087Z,2.17
2018-01-16T20:28:30.262Z,2.30
2018-01-16T20:30:58.779Z,2.47
2018-01-16T20:33:27.486Z,1.83
2018-01-16T20:35:56.593Z,2.23
2018-01-16T20:38:25.217Z,0.63
2018-01-16T20:40:54.602Z,0.67
2018-01-16T20:43:23.308Z,0.40
2018-01-16T20:45:52.212Z,0.90
2018-01-16T20:48:21.431Z,1.45
2018-01-16T20:50:50.715Z,1.10
2018-01-16T20:53:19.252Z,0.90
2018-01-16T20:55:48.181Z,0.50
2018-01-16T20:58:16.824Z,0.93
2018-01-16T21:00:45.858Z,0.88
2018-01-16T21:03:14.445Z,0.55
2018-01-16T21:05:42.952Z,0.60
2018-01-16T21:08:11.909Z,0.68
2018-01-16T21:10:40.570Z,1.20
2018-01-16T21:13:09.342Z,0.95
2018-01-16T21:15:37.866Z,1.00
2018-01-16T21:18:07.255Z,1.75
2018-01-16T21:20:36.063Z,1.83
2018-01-16T21:23:04.545Z,2.25
2018-01-16T21:25:33.519Z,2.00
2018-01-16T21:28:02.815Z,1.80
2018-01-16T21:30:32.863Z,2.10
2018-01-16T21:33:01.566Z,2.37
2018-01-16T21:35:31.363Z,2.15
2018-01-16T21:37:59.991Z,3.00
2018-01-16T21:40:29.397Z,2.40
2018-01-16T21:42:58.136Z,1.35
2018-01-16T21:45:26.802Z,0.60
2018-01-16T21:47:55.747Z,1.05
2018-01-16T21:50:25.174Z,0.70
2018-01-16T21:52:53.445Z,1.00
2018-01-16T21:55:23.086Z,0.90
2018-01-16T21:57:51.790Z,0.80
2018-01-16T22:00:20.647Z,0.82
2018-01-16T22:02:50.472Z,1.27
2018-01-16T22:05:19.676Z,1.33
2018-01-16T22:07:49.389Z,1.33
2018-01-16T22:10:17.604Z,1.10
2018-01-16T22:12:47.113Z,1.25
2018-01-16T22:15:16.773Z,1.45
2018-01-16T22:17:45.205Z,1.50
2018-01-16T22:20:14.183Z,1.60
2018-01-16T22:22:43.018Z,2.00
2018-01-16T22:25:11.238Z,2.00
2018-01-16T22:27:40.435Z,1.65
2018-01-16T22:30:09.850Z,1.40
2018-01-16T22:32:39.589Z,1.62
2018-01-16T22:35:07.736Z,1.85
2018-01-16T22:37:36.195Z,1.95
2018-01-16T22:40:05.744Z,2.40
2018-01-16T22:42:34.806Z,2.13
2018-01-16T22:45:03.333Z,1.50
2018-01-16T22:47:31.876Z,2.20
2018-01-16T22:50:01.880Z,1.35
2018-01-16T22:52:30.140Z,1.53
2018-01-16T22:54:59.031Z,1.70
2018-01-16T22:57:28.894Z,1.07
2018-01-16T22:59:57.728Z,1.30
2018-01-16T23:02:27.476Z,1.30
2018-01-16T23:04:56.517Z,1.77
2018-01-16T23:07:25.211Z,1.77
2018-01-16T23:09:54.864Z,0.97
2018-01-16T23:12:24.683Z,1.48
2018-01-16T23:14:52.913Z,1.05
2018-01-16T23:17:21.628Z,0.98
2018-01-16T23:19:50.396Z,1.07
2018-01-16T23:22:18.855Z,1.23
2018-01-16T23:24:47.846Z,0.90
2018-01-16T23:27:18.163Z,0.90
2018-01-16T23:29:47.044Z,0.60
2018-01-16T23:32:17.502Z,1.40
2018-01-16T23:34:46.381Z,1.40
2018-01-16T23:37:14.724Z,1.10
2018-01-16T23:39:44.044Z,1.08
2018-01-16T23:42:12.435Z,0.70
2018-01-16T23:44:41.716Z,1.30
2018-01-16T23:47:10.703Z,1.02
2018-01-16T23:49:39.929Z,1.33
2018-01-16T23:52:09.541Z,0.77
2018-01-16T23:54:38.302Z,0.70
2018-01-16T23:57:07.422Z,0.75
2018-01-16T23:59:36.224Z,0.93
